Perry, Ohio
Current Conditions -  °F | °C
As of 8:45 AM on Friday 24 Oct 2014 (Local Time) from KCGF Reporting Station
Broken Clouds Broken Clouds  
Wind Chill: 42°   Ceiling: 20000
Heat Index: 46°   Visibility: 7mi
Dew Point: 43°   Wind: 9mph
Humidity: 87%   Direction: 230°SW
Pressure: 30.1"   Gusts: NA
Location:  41.76°N, 81.14°W
Report Text: KCGF 241245Z 23008KT 7SM SCT100 BKN200 08/06 A3010
Loading
Personal Weather Stations






























Interactive Weather Map
Tropical Storm Tracking
New forecast layout! Learn more

10-Day Weather Forecast

Advertisements
Track Severe Weather on mobile